createdAt,value
2023-01-02T00:03:58.241Z,12.26
2023-01-02T00:09:02.574Z,11.79
2023-01-02T00:14:05.949Z,11.39
2023-01-02T00:19:08.885Z,11.07
2023-01-02T00:24:11.865Z,10.83
2023-01-02T00:29:14.785Z,10.64
2023-01-02T00:34:17.767Z,11.45
2023-01-02T00:39:20.891Z,14.22
2023-01-02T00:44:23.884Z,14.93
2023-01-02T00:49:26.941Z,13.44
2023-01-02T00:54:29.915Z,12.48
2023-01-02T00:59:32.902Z,11.87
2023-01-02T01:04:37.073Z,11.39
2023-01-02T01:09:40.060Z,10.96
2023-01-02T01:14:43.905Z,11.57
2023-01-02T01:19:46.856Z,14.22
2023-01-02T01:24:50.299Z,14.72
2023-01-02T01:29:53.423Z,13.10
2023-01-02T01:34:56.440Z,12.11
2023-01-02T01:39:59.423Z,11.56
2023-01-02T01:45:03.042Z,11.15
2023-01-02T01:50:21.509Z,10.83
2023-01-02T01:55:31.428Z,10.59
2023-01-02T02:00:35.238Z,10.38
2023-01-02T02:05:39.875Z,10.18
2023-01-02T02:10:43.137Z,11.02
2023-01-02T02:16:07.835Z,13.83
2023-01-02T02:21:13.690Z,15.17
2023-01-02T02:26:29.437Z,13.79
2023-01-02T02:31:34.625Z,12.62
2023-01-02T02:37:02.021Z,11.92
2023-01-02T02:42:45.140Z,11.40
2023-01-02T02:47:56.298Z,11.06
2023-01-02T02:53:11.792Z,13.15
2023-01-02T02:58:16.734Z,15.03
2023-01-02T03:03:24.474Z,15.21
2023-01-02T03:09:23.267Z,13.42
2023-01-02T03:14:39.887Z,12.11
2023-01-02T03:19:49.611Z,11.44
2023-01-02T03:24:55.548Z,10.92
2023-01-02T03:30:22.740Z,10.47
2023-01-02T03:35:33.049Z,11.25
2023-01-02T03:40:44.142Z,13.86
2023-01-02T03:46:02.180Z,14.96
2023-01-02T03:51:05.451Z,13.43
2023-01-02T03:56:39.287Z,12.13
2023-01-02T04:01:47.702Z,11.27
2023-01-02T04:06:58.723Z,10.65
2023-01-02T04:12:14.054Z,10.17
2023-01-02T04:17:20.882Z,9.79
2023-01-02T04:22:28.998Z,9.51
2023-01-02T04:28:03.017Z,10.33
2023-01-02T04:33:10.452Z,13.29
2023-01-02T04:38:13.526Z,14.32
2023-01-02T04:43:22.283Z,12.89
2023-01-02T04:48:25.414Z,11.79
2023-01-02T04:53:28.357Z,11.16
2023-01-02T04:58:31.574Z,10.70
2023-01-02T05:03:34.532Z,10.32
2023-01-02T05:08:38.552Z,9.98
2023-01-02T05:13:42.052Z,9.69
2023-01-02T05:18:45.099Z,11.12
2023-01-02T05:23:50.817Z,13.55
2023-01-02T05:28:54.980Z,14.01
2023-01-02T05:33:59.697Z,12.39
2023-01-02T05:39:02.669Z,11.33
2023-01-02T05:44:08.775Z,10.60
2023-01-02T05:49:12.899Z,11.07
2023-01-02T05:54:16.223Z,13.49
2023-01-02T05:59:19.181Z,14.67
2023-01-02T06:04:22.194Z,13.59
2023-01-02T06:09:25.177Z,11.97
2023-01-02T06:14:28.141Z,10.95
2023-01-02T06:19:31.086Z,10.25
2023-01-02T06:24:34.024Z,10.72
2023-01-02T06:29:36.975Z,13.27
2023-01-02T06:34:39.940Z,13.75
2023-01-02T06:39:42.890Z,12.09
2023-01-02T06:44:45.838Z,11.09
2023-01-02T06:49:48.750Z,10.47
2023-01-02T06:54:51.685Z,9.99
2023-01-02T06:59:54.628Z,9.58
2023-01-02T07:04:57.580Z,9.28
2023-01-02T07:10:00.574Z,11.18
2023-01-02T07:15:07.010Z,13.27
2023-01-02T07:20:10.742Z,14.30
2023-01-02T07:25:13.551Z,13.78
2023-01-02T07:30:16.761Z,11.79
2023-01-02T07:35:19.756Z,10.60
2023-01-02T07:40:26.042Z,11.87
2023-01-02T07:45:34.965Z,13.86
2023-01-02T07:50:37.987Z,14.02
2023-01-02T07:55:40.970Z,12.23
2023-01-02T08:00:43.910Z,11.09
2023-01-02T08:05:46.910Z,10.39
2023-01-02T08:10:49.880Z,9.94
2023-01-02T08:15:52.828Z,9.66
2023-01-02T08:20:56.262Z,10.84
2023-01-02T08:26:05.191Z,13.42
2023-01-02T08:31:13.990Z,14.83
2023-01-02T08:36:17.080Z,14.85
2023-01-02T08:41:38.297Z,13.21
2023-01-02T08:46:43.009Z,12.11
2023-01-02T08:51:46.273Z,12.29
2023-01-02T08:56:49.436Z,14.41
2023-01-02T09:01:53.178Z,13.51
2023-01-02T09:06:56.113Z,12.31
2023-01-02T09:12:00.477Z,11.67
2023-01-02T09:17:03.536Z,11.66
2023-01-02T09:22:06.479Z,14.11
2023-01-02T09:27:09.508Z,15.68
2023-01-02T09:32:12.451Z,14.64
2023-01-02T09:37:15.353Z,13.31
2023-01-02T09:42:18.504Z,12.55
2023-01-02T09:47:29.641Z,12.02
2023-01-02T09:52:40.307Z,11.62
2023-01-02T09:57:57.137Z,12.25
2023-01-02T10:03:32.330Z,15.00
2023-01-02T10:08:53.338Z,14.34
2023-01-02T10:14:20.596Z,13.14
2023-01-02T10:19:48.876Z,12.51
2023-01-02T10:25:15.977Z,13.54
2023-01-02T10:30:26.683Z,15.96
2023-01-02T10:35:39.193Z,15.08
2023-01-02T10:40:46.183Z,13.87
2023-01-02T10:45:49.132Z,13.23
2023-01-02T10:51:00.864Z,12.79
2023-01-02T10:56:14.343Z,13.60
2023-01-02T11:01:20.620Z,15.60
2023-01-02T11:06:31.158Z,14.51
2023-01-02T11:11:39.029Z,13.59
2023-01-02T11:16:42.246Z,13.10
2023-01-02T11:21:46.824Z,13.92
2023-01-02T11:26:50.720Z,15.33
2023-01-02T11:31:59.606Z,14.19
2023-01-02T11:37:12.435Z,13.43
2023-01-02T11:42:53.269Z,14.10
2023-01-02T11:48:05.096Z,15.77
2023-01-02T11:53:12.413Z,14.48
2023-01-02T11:58:27.548Z,13.66
2023-01-02T12:03:33.150Z,13.18
2023-01-02T12:09:23.204Z,12.89
2023-01-02T12:14:35.369Z,15.19
2023-01-02T12:19:52.784Z,16.36
2023-01-02T12:25:17.933Z,14.95
2023-01-02T12:30:22.168Z,14.06
2023-01-02T12:35:46.247Z,13.62
2023-01-02T12:40:57.958Z,13.31
2023-01-02T12:46:09.834Z,14.89
2023-01-02T12:51:58.527Z,16.31
2023-01-02T12:57:30.034Z,14.84
2023-01-02T13:03:21.804Z,13.98
2023-01-02T13:08:46.383Z,14.14
2023-01-02T13:13:49.845Z,15.74
2023-01-02T13:19:04.771Z,14.60
2023-01-02T13:24:14.436Z,13.71
2023-01-02T13:29:17.427Z,13.51
2023-01-02T13:34:32.430Z,15.79
2023-01-02T13:39:41.507Z,15.73
2023-01-02T13:44:52.247Z,14.44
2023-01-02T13:50:13.078Z,13.68
2023-01-02T13:55:21.106Z,13.19
2023-01-02T14:00:36.132Z,12.86
2023-01-02T14:05:59.797Z,13.68
2023-01-02T14:11:05.596Z,16.00
2023-01-02T14:16:19.478Z,14.89
2023-01-02T14:21:22.530Z,13.87
2023-01-02T14:26:33.598Z,13.26
2023-01-02T14:31:37.711Z,12.79
2023-01-02T14:36:45.325Z,14.18
2023-01-02T14:42:06.870Z,16.03
2023-01-02T14:47:38.171Z,14.68
2023-01-02T14:52:47.557Z,13.57
2023-01-02T14:57:53.866Z,12.96
2023-01-02T15:03:19.162Z,13.50
2023-01-02T15:08:35.907Z,15.70
2023-01-02T15:14:05.502Z,14.41
2023-01-02T15:19:02.716Z,13.25
2023-01-02T15:24:07.755Z,12.89
2023-01-02T15:29:28.846Z,15.12
2023-01-02T15:34:34.161Z,15.27
2023-01-02T15:39:44.312Z,13.73
2023-01-02T15:45:06.248Z,13.01
2023-01-02T15:50:21.168Z,15.08
2023-01-02T15:55:24.836Z,15.03
2023-01-02T16:00:36.814Z,13.58
2023-01-02T16:05:57.734Z,13.06
2023-01-02T16:11:03.865Z,15.37
2023-01-02T16:16:16.976Z,15.71
2023-01-02T16:21:21.124Z,14.00
2023-01-02T16:26:32.022Z,13.92
2023-01-02T16:31:55.700Z,15.91
2023-01-02T16:37:14.379Z,14.69
2023-01-02T16:42:37.904Z,13.36
2023-01-02T16:47:43.759Z,15.04
2023-01-02T16:52:47.241Z,16.24
2023-01-02T16:57:51.487Z,14.65
2023-01-02T17:02:54.611Z,13.74
2023-01-02T17:07:57.767Z,15.63
2023-01-02T17:13:04.693Z,15.60
2023-01-02T17:18:09.735Z,13.89
2023-01-02T17:23:12.785Z,13.72
2023-01-02T17:28:16.587Z,15.85
2023-01-02T17:33:20.036Z,15.29
2023-01-02T17:38:22.976Z,13.66
2023-01-02T17:43:26.605Z,12.69
2023-01-02T17:48:30.499Z,14.10
2023-01-02T17:53:33.471Z,15.81
2023-01-02T17:58:36.407Z,14.39
2023-01-02T18:03:39.325Z,13.33
2023-01-02T18:08:42.602Z,15.17
2023-01-02T18:13:52.077Z,15.84
2023-01-02T18:18:55.546Z,14.02
2023-01-02T18:24:03.129Z,12.76
2023-01-02T18:29:17.223Z,13.21
2023-01-02T18:39:50.414Z,15.30
2023-01-02T18:44:56.604Z,13.55
2023-01-02T18:50:08.704Z,12.53
2023-01-02T18:55:11.605Z,13.33
2023-01-02T19:00:25.899Z,15.52
2023-01-02T19:05:36.469Z,14.62
2023-01-02T19:10:48.795Z,13.03
2023-01-02T19:16:01.915Z,13.25
2023-01-02T19:21:31.995Z,15.49
2023-01-02T19:26:39.219Z,14.52
2023-01-02T19:32:23.175Z,13.02
2023-01-02T19:37:40.542Z,13.39
2023-01-02T19:42:44.465Z,15.59
2023-01-02T19:47:49.402Z,14.81
2023-01-02T19:52:52.642Z,13.24
2023-01-02T19:57:55.773Z,12.34
2023-01-02T20:02:59.112Z,11.73
2023-01-02T20:08:02.521Z,12.44
2023-01-02T20:13:05.486Z,14.92
2023-01-02T20:18:09.121Z,15.11
2023-01-02T20:23:12.254Z,13.42
2023-01-02T20:28:15.194Z,12.36
2023-01-02T20:33:18.158Z,11.72
2023-01-02T20:38:21.103Z,13.25
2023-01-02T20:43:24.149Z,15.40
2023-01-02T20:48:27.277Z,15.02
2023-01-02T20:53:30.280Z,13.41
2023-01-02T20:58:33.419Z,12.44
2023-01-02T21:03:36.486Z,11.80
2023-01-02T21:08:39.928Z,12.28
2023-01-02T21:13:42.963Z,14.79
2023-01-02T21:18:45.965Z,15.30
2023-01-02T21:23:49.840Z,13.64
2023-01-02T21:28:52.834Z,12.58
2023-01-02T21:33:56.187Z,12.89
2023-01-02T21:38:59.165Z,15.23
2023-01-02T21:44:02.132Z,14.88
2023-01-02T21:49:05.080Z,13.29
2023-01-02T21:54:08.039Z,12.46
2023-01-02T21:59:10.966Z,14.21
2023-01-02T22:04:13.942Z,15.45
2023-01-02T22:09:17.151Z,13.89
2023-01-02T22:14:20.324Z,12.69
2023-01-02T22:19:25.781Z,12.94
2023-01-02T22:24:29.151Z,15.25
2023-01-02T22:30:09.778Z,14.49
2023-01-02T22:34:57.113Z,12.98
2023-01-02T22:40:01.873Z,12.91
2023-01-02T22:45:06.556Z,15.17
2023-01-02T22:50:20.292Z,14.71
2023-01-02T22:55:24.275Z,13.14
2023-01-02T23:00:27.223Z,12.27
2023-01-02T23:05:30.147Z,11.72
2023-01-02T23:10:33.215Z,13.28
2023-01-02T23:15:36.190Z,15.34
2023-01-02T23:20:39.160Z,14.25
2023-01-02T23:25:43.628Z,12.90
2023-01-02T23:30:46.554Z,12.09
2023-01-02T23:35:52.425Z,12.34
2023-01-02T23:40:55.368Z,14.85
2023-01-02T23:45:58.334Z,14.96
2023-01-02T23:51:04.504Z,13.37
2023-01-02T23:56:23.415Z,12.38
